createdAt,value
2023-04-20T00:01:11.002Z,3.25
2023-04-20T00:06:18.162Z,7.03
2023-04-20T00:11:25.136Z,4.97
2023-04-20T00:16:29.412Z,3.38
2023-04-20T00:21:34.833Z,4.60
2023-04-20T00:26:38.809Z,4.03
2023-04-20T00:31:43.897Z,3.38
2023-04-20T00:36:49.246Z,4.22
2023-04-20T00:41:54.285Z,4.85
2023-04-20T00:46:58.560Z,3.15
2023-04-20T00:52:04.546Z,5.50
2023-04-20T00:57:08.510Z,5.38
2023-04-20T01:02:13.040Z,4.40
2023-04-20T01:07:20.092Z,3.40
2023-04-20T01:12:26.631Z,2.58
2023-04-20T01:17:30.609Z,3.33
2023-04-20T01:22:36.027Z,3.60
2023-04-20T01:27:40.033Z,5.40
2023-04-20T01:32:44.904Z,3.97
2023-04-20T01:37:50.303Z,3.65
2023-04-20T01:42:54.338Z,3.30
2023-04-20T01:47:59.839Z,3.58
2023-04-20T01:53:05.330Z,3.85
2023-04-20T01:58:09.265Z,3.65
2023-04-20T02:03:13.525Z,3.67
2023-04-20T02:08:19.251Z,3.55
2023-04-20T02:13:23.268Z,4.63
2023-04-20T02:18:28.046Z,2.67
2023-04-20T02:23:33.804Z,3.60
2023-04-20T02:28:37.893Z,4.15
2023-04-20T02:33:42.131Z,6.00
2023-04-20T02:38:47.439Z,5.00
2023-04-20T02:43:51.439Z,3.65
2023-04-20T02:48:56.616Z,3.40
2023-04-20T02:54:03.596Z,3.00
2023-04-20T02:59:09.068Z,4.07
2023-04-20T03:04:21.204Z,2.92
2023-04-20T03:09:49.580Z,2.95
2023-04-20T03:15:12.252Z,3.70
2023-04-20T03:20:35.594Z,2.38
2023-04-20T03:25:41.346Z,3.45
2023-04-20T03:30:51.065Z,3.45
2023-04-20T03:35:55.218Z,3.13
2023-04-20T03:41:00.595Z,4.05
2023-04-20T03:46:05.089Z,3.50
2023-04-20T03:51:09.073Z,3.65
2023-04-20T03:56:16.588Z,2.65
2023-04-20T04:01:20.649Z,6.03
2023-04-20T04:06:27.528Z,4.63
2023-04-20T04:11:33.133Z,5.82
2023-04-20T04:16:37.987Z,4.20
2023-04-20T04:21:43.267Z,5.85
2023-04-20T04:26:49.882Z,6.75
2023-04-20T04:31:55.712Z,6.30
2023-04-20T04:36:59.757Z,5.55
2023-04-20T04:42:17.627Z,5.57
2023-04-20T04:47:23.642Z,11.13
2023-04-20T04:57:35.318Z,6.97
2023-04-20T05:02:39.681Z,5.47
2023-04-20T05:07:44.026Z,6.80
2023-04-20T05:12:50.188Z,5.60
2023-04-20T05:17:55.387Z,4.65
2023-04-20T05:22:59.314Z,4.88
2023-04-20T05:28:04.667Z,6.55
2023-04-20T05:33:08.691Z,4.85
2023-04-20T05:38:12.708Z,4.57
2023-04-20T05:43:19.329Z,7.22
2023-04-20T05:48:23.366Z,5.60
2023-04-20T05:53:27.470Z,6.30
2023-04-20T05:58:34.144Z,4.40
2023-04-20T06:03:38.366Z,4.23
2023-04-20T06:08:42.582Z,6.70
2023-04-20T06:13:48.016Z,5.47
2023-04-20T06:18:52.816Z,5.47
2023-04-20T06:23:56.945Z,4.93
2023-04-20T06:29:02.376Z,3.72
2023-04-20T06:34:06.337Z,4.53
2023-04-20T06:39:11.459Z,3.42
2023-04-20T06:44:16.797Z,5.10
2023-04-20T06:49:20.812Z,5.20
2023-04-20T06:54:24.710Z,6.20
2023-04-20T06:59:30.048Z,4.45
2023-04-20T07:04:34.055Z,3.88
2023-04-20T07:09:38.093Z,4.95
2023-04-20T07:14:43.423Z,3.08
2023-04-20T07:19:47.266Z,3.03
2023-04-20T07:24:51.645Z,4.20
2023-04-20T07:29:57.235Z,3.33
2023-04-20T07:35:01.198Z,3.33
2023-04-20T07:40:07.041Z,2.70
2023-04-20T07:45:14.460Z,2.35
2023-04-20T07:50:18.829Z,2.50
2023-04-20T07:55:22.845Z,2.00
2023-04-20T08:00:28.464Z,2.88
2023-04-20T08:05:32.590Z,2.42
2023-04-20T08:10:37.416Z,2.60
2023-04-20T08:15:43.012Z,2.60
2023-04-20T08:20:47.187Z,2.80
2023-04-20T08:25:51.051Z,3.25
2023-04-20T08:30:56.591Z,3.10
2023-04-20T08:36:00.562Z,2.03
2023-04-20T08:41:04.667Z,2.97
2023-04-20T08:46:10.558Z,1.83
2023-04-20T08:51:18.005Z,2.20
2023-04-20T08:56:22.089Z,1.92
2023-04-20T09:01:35.515Z,2.15
2023-04-20T09:06:44.975Z,1.95
2023-04-20T09:11:49.382Z,1.33
2023-04-20T09:16:57.679Z,1.58
2023-04-20T09:22:06.609Z,1.58
2023-04-20T09:27:19.659Z,1.52
2023-04-20T09:32:26.406Z,1.27
2023-04-20T09:37:30.785Z,1.13
2023-04-20T09:42:39.354Z,1.92
2023-04-20T09:47:45.792Z,1.33
2023-04-20T09:52:50.634Z,0.90
2023-04-20T09:57:55.534Z,1.50
2023-04-20T10:03:01.373Z,1.25
2023-04-20T10:08:05.604Z,3.28
2023-04-20T10:13:09.526Z,1.88
2023-04-20T10:18:19.502Z,1.17
2023-04-20T10:23:24.812Z,0.80
2023-04-20T10:28:40.735Z,1.52
2023-04-20T10:33:53.885Z,0.60
2023-04-20T10:38:58.042Z,1.58
2023-04-20T10:44:09.243Z,0.95
2023-04-20T10:49:14.510Z,1.15
2023-04-20T10:54:18.940Z,1.65
2023-04-20T10:59:24.898Z,2.70
2023-04-20T11:04:34.196Z,1.13
2023-04-20T11:09:38.840Z,1.30
2023-04-20T11:14:53.085Z,1.05
2023-04-20T11:20:05.966Z,1.17
2023-04-20T11:25:11.990Z,2.13
2023-04-20T11:30:16.071Z,2.40
2023-04-20T11:35:21.587Z,0.45
2023-04-20T11:40:26.707Z,1.25
2023-04-20T11:45:36.321Z,5.68
2023-04-20T11:50:42.682Z,1.10
2023-04-20T11:55:46.621Z,1.25
2023-04-20T12:00:50.739Z,1.52
2023-04-20T12:05:56.198Z,1.65
2023-04-20T12:11:00.245Z,1.30
2023-04-20T12:16:04.220Z,1.27
2023-04-20T12:21:09.657Z,1.48
2023-04-20T12:26:13.641Z,1.17
2023-04-20T12:31:17.668Z,1.30
2023-04-20T12:36:23.012Z,1.63
2023-04-20T12:41:26.972Z,1.30
2023-04-20T12:46:30.935Z,1.45
2023-04-20T12:51:36.236Z,1.08
2023-04-20T12:56:40.199Z,1.88
2023-04-20T13:01:44.083Z,1.77
2023-04-20T13:06:49.417Z,1.52
2023-04-20T13:17:21.771Z,1.60
2023-04-20T13:22:27.113Z,1.52
2023-04-20T13:27:31.654Z,1.52
2023-04-20T13:32:37.650Z,1.27
2023-04-20T13:37:45.704Z,1.95
2023-04-20T13:42:53.151Z,1.20
2023-04-20T13:53:03.299Z,0.88
2023-04-20T13:58:07.437Z,0.60
2023-04-20T14:03:15.351Z,1.52
2023-04-20T14:08:24.411Z,0.88
2023-04-20T14:13:28.354Z,0.75
2023-04-20T14:18:32.262Z,1.00
2023-04-20T14:23:41.203Z,0.55
2023-04-20T14:28:45.898Z,1.27
2023-04-20T14:33:49.665Z,1.27
2023-04-20T14:38:55.584Z,0.98
2023-04-20T14:43:59.376Z,0.93
2023-04-20T14:49:03.099Z,1.15
2023-04-20T14:54:08.290Z,1.10
2023-04-20T14:59:12.140Z,0.90
2023-04-20T15:04:16.349Z,0.80
2023-04-20T15:09:21.770Z,0.82
2023-04-20T15:14:25.655Z,3.95
2023-04-20T15:19:29.493Z,0.80
2023-04-20T15:24:35.009Z,1.10
2023-04-20T15:29:38.823Z,1.90
2023-04-20T15:34:42.565Z,0.60
2023-04-20T15:39:47.734Z,1.00
2023-04-20T15:44:55.238Z,0.60
2023-04-20T15:50:01.764Z,0.98
2023-04-20T15:55:08.839Z,0.90
2023-04-20T16:00:16.196Z,1.70
2023-04-20T16:10:26.915Z,1.70
2023-04-20T16:15:31.459Z,2.13
2023-04-20T16:20:35.950Z,1.92
2023-04-20T16:25:41.312Z,2.15
2023-04-20T16:30:45.680Z,1.10
2023-04-20T16:35:51.309Z,0.88
2023-04-20T16:40:56.468Z,4.05
2023-04-20T16:46:00.353Z,4.57
2023-04-20T16:51:04.203Z,2.67
2023-04-20T16:56:11.464Z,0.82
2023-04-20T17:06:19.232Z,1.05
2023-04-20T17:11:24.462Z,0.68
2023-04-20T17:16:28.844Z,1.23
2023-04-20T17:21:32.736Z,1.85
2023-04-20T17:26:46.837Z,3.42
2023-04-20T17:31:51.694Z,2.70
2023-04-20T17:36:55.497Z,4.15
2023-04-20T17:42:01.489Z,11.57
2023-04-20T17:47:06.450Z,4.47
2023-04-20T17:52:12.642Z,2.45
2023-04-20T17:57:17.853Z,3.47
2023-04-20T18:02:21.838Z,11.35
2023-04-20T18:07:25.776Z,5.45
2023-04-20T18:12:31.008Z,2.88
2023-04-20T18:17:36.428Z,5.32
2023-04-20T18:22:40.330Z,6.35
2023-04-20T18:27:45.818Z,1.40
2023-04-20T18:32:49.684Z,1.55
2023-04-20T18:37:56.181Z,3.13
2023-04-20T18:43:01.643Z,3.45
2023-04-20T18:48:06.631Z,2.88
2023-04-20T18:53:10.679Z,6.95
2023-04-20T18:58:15.837Z,7.30
2023-04-20T19:03:19.873Z,5.53
2023-04-20T19:08:24.397Z,4.75
2023-04-20T19:13:29.558Z,2.20
2023-04-20T19:18:34.439Z,2.47
2023-04-20T19:23:38.243Z,2.72
2023-04-20T19:28:43.436Z,5.15
2023-04-20T19:33:47.259Z,3.05
2023-04-20T19:38:51.093Z,5.80
2023-04-20T19:43:56.366Z,2.67
2023-04-20T19:49:00.526Z,2.15
2023-04-20T19:54:04.882Z,4.07
2023-04-20T19:59:10.041Z,3.65
2023-04-20T20:04:17.272Z,4.00
2023-04-20T20:09:24.049Z,6.45
2023-04-20T20:14:32.097Z,11.75
2023-04-20T20:19:35.879Z,2.40
2023-04-20T20:24:44.473Z,2.75
2023-04-20T20:29:50.023Z,1.13
2023-04-20T20:34:53.968Z,2.67
2023-04-20T20:39:57.910Z,3.40
2023-04-20T20:45:03.573Z,7.20
2023-04-20T20:50:08.898Z,4.28
2023-04-20T20:55:13.142Z,3.10
2023-04-20T21:00:19.052Z,2.38
2023-04-20T21:05:24.014Z,1.85
2023-04-20T21:10:27.948Z,1.65
2023-04-20T21:21:27.465Z,1.83
2023-04-20T21:26:37.679Z,2.60
2023-04-20T21:31:43.080Z,3.05
2023-04-20T21:36:47.037Z,5.40
2023-04-20T21:41:52.614Z,2.47
2023-04-20T21:46:58.203Z,1.17
2023-04-20T21:52:02.103Z,1.95
2023-04-20T21:57:07.666Z,1.02
2023-04-20T22:02:13.019Z,2.63
2023-04-20T22:07:18.136Z,1.92
2023-04-20T22:12:32.249Z,1.60
2023-04-20T22:17:46.485Z,3.45
2023-04-20T22:22:50.562Z,2.60
2023-04-20T22:27:54.477Z,3.20
2023-04-20T22:32:59.901Z,1.95
2023-04-20T22:38:03.838Z,1.65
2023-04-20T22:43:07.755Z,2.28
2023-04-20T22:48:13.169Z,2.70
2023-04-20T22:53:17.134Z,2.63
2023-04-20T22:58:21.149Z,2.67
2023-04-20T23:03:27.223Z,2.55
2023-04-20T23:08:33.549Z,2.70
2023-04-20T23:13:37.492Z,4.32
2023-04-20T23:18:42.832Z,4.00
2023-04-20T23:23:46.722Z,2.08
2023-04-20T23:28:52.458Z,2.95
2023-04-20T23:33:58.784Z,2.70
2023-04-20T23:39:04.755Z,1.75
2023-04-20T23:44:08.618Z,2.20
2023-04-20T23:49:13.904Z,1.00
2023-04-20T23:54:17.791Z,2.15
2023-04-20T23:59:21.723Z,2.53
